CST,Max TemperatureF,Mean TemperatureF,Min TemperatureF,Max Dew PointF,MeanDew PointF,Min DewpointF,Max Humidity, Mean Humidity, Min Humidity, Max Sea Level PressureIn, Mean Sea Level PressureIn, Min Sea Level PressureIn, Max VisibilityMiles, Mean VisibilityMiles, Min VisibilityMiles, Max Wind SpeedMPH, Mean Wind SpeedMPH, Max Gust SpeedMPH,PrecipitationIn, CloudCover, Events, WindDirDegrees
2013-12-1,50,34,19,28,24,18,100,74,40,30.17,30.06,29.89,10,6,1,6,1,,0.00,1,,62
2013-12-2,60,46,32,37,32,27,100,69,34,29.88,29.65,29.55,10,9,4,14,5,20,0.00,2,,179
2013-12-3,50,41,32,39,36,32,100,88,66,29.67,29.58,29.50,10,5,0,16,4,21,0.00,4,Fog,15
2013-12-4,39,28,17,37,23,10,100,88,68,30.05,29.75,29.61,10,7,1,21,11,26,0.00,8,,314
2013-12-5,19,14,10,10,4,-2,73,62,53,30.45,30.29,30.08,10,10,10,21,13,26,0.00,2,Rain,319
2013-12-6,15,12,10,9,1,-4,73,61,45,30.71,30.59,30.46,10,10,10,16,11,22,0.00,6,,346
2013-12-7,19,16,12,16,4,-4,86,61,38,30.77,30.64,30.43,10,10,10,13,5,18,0.00,2,,44
2013-12-8,19,14,10,16,10,0,93,79,49,30.42,30.16,30.02,10,6,0,16,9,20,0.00,7,Rain-Snow,103
2013-12-9,14,10,5,10,4,-2,92,75,62,30.38,30.27,30.14,10,10,5,18,7,23,0.00,0,,240
2013-12-10,26,18,10,19,11,1,80,69,50,30.28,30.19,30.11,10,10,10,17,10,24,0.00,3,,226
2013-12-11,28,14,0,25,3,-8,93,71,48,30.68,30.55,30.25,10,10,7,24,9,32,0.00,2,Rain-Snow,317
2013-12-12,32,18,3,21,9,-4,93,75,60,30.52,30.32,30.12,10,10,10,10,4,,0.00,0,,179
2013-12-13,33,22,12,28,21,10,100,87,75,30.11,29.98,29.88,10,7,3,16,4,21,0.00,3,,41
2013-12-14,26,19,12,23,16,10,100,83,74,30.22,30.17,30.04,10,9,4,18,12,24,0.00,7,,331
2013-12-15,32,24,15,25,19,14,93,84,69,30.19,30.06,29.97,10,9,5,8,2,,0.00,4,,91
2013-12-16,44,28,12,30,22,10,100,83,57,30.18,30.06,29.99,10,8,1,12,5,15,0.00,2,,7
2013-12-17,42,30,19,28,21,14,100,71,31,30.29,30.22,30.15,10,10,7,17,6,25,0.00,1,,265
2013-12-18,59,42,26,30,26,18,86,62,34,30.15,29.86,29.73,10,10,10,18,9,26,0.00,0,,178
2013-12-19,41,32,24,30,29,23,100,85,65,29.84,29.77,29.72,10,9,2,17,7,26,0.00,4,,31
2013-12-20,24,20,15,23,16,14,93,89,86,29.98,29.92,29.84,10,7,3,18,12,25,0.00,8,Rain-Snow,333
2013-12-21,26,22,19,21,18,14,93,85,74,29.93,29.83,29.76,10,8,0,20,7,24,0.00,8,Rain-Snow,16
2013-12-22,23,12,0,21,11,-4,93,81,68,30.39,30.12,29.84,10,8,0,18,11,25,0.00,4,Rain-Snow,329
2013-12-23,8,-4,-16,1,-7,-22,84,67,48,30.62,30.55,30.40,10,10,9,14,8,22,0.00,3,Snow,318
2013-12-24,24,4,-16,25,3,-22,100,77,62,30.58,30.34,30.19,10,10,3,18,7,25,0.00,7,Rain,158
2013-12-25,41,28,14,28,21,10,100,81,53,30.33,30.27,30.23,10,9,4,13,7,23,0.00,4,,277
2013-12-26,41,26,10,28,21,9,100,79,57,30.30,30.20,30.13,10,10,10,14,5,,0.00,0,,216
2013-12-27,46,30,14,30,22,10,100,76,50,30.28,30.21,30.12,10,10,4,14,4,17,0.00,0,,208
2013-12-28,48,36,21,34,28,14,87,72,54,30.11,29.96,29.82,10,10,10,25,9,38,0.00,1,,198
2013-12-29,19,12,3,12,-5,-11,74,54,32,30.38,30.30,30.11,10,10,10,25,17,36,0.00,2,Rain-Snow,342
2013-12-30,30,16,1,21,4,-6,79,59,45,30.33,30.22,30.10,10,10,10,20,7,24,0.00,5,,198
2013-12-31,37,22,6,25,12,3,92,76,56,30.30,30.18,30.02,10,10,10,20,6,28,0.00,1,,68